ISR043 LLBG-LLER
Flight info
| Callsign | ISR043 |
|---|---|
| Flight time | 0h 37m |
| Altitude | 17000 |
| Route | TOMAL J10 NURIT |
| Aircraft | A320/M-SDE3FGHIRWY/LB1 |
Departure
| Time | 2026-05-05 17:01 |
|---|---|
| Airport | Ben Gurion International Airport (LLBG) |
Arrival
| Time | 2026-05-05 17:38 |
|---|---|
| Airport | Ramon International Airport (LLER) |
| Time | Latitude | Longitude | Altitude | Speed | Heading |
|---|---|---|---|---|---|
| 2026-05-05 16:29 | 32.00252 | 34.87885 | 164 ft | 0 kts | 121° |
| 2026-05-05 16:51 | 32.00255 | 34.87880 | 100 ft | 2 kts | 120° |
| 2026-05-05 16:52 | 32.00264 | 34.87860 | 118 ft | 3 kts | 114° |
| 2026-05-05 16:52 | 32.00271 | 34.87838 | 119 ft | 3 kts | 104° |
| 2026-05-05 16:52 | 32.00275 | 34.87815 | 120 ft | 3 kts | 86° |
| 2026-05-05 16:52 | 32.00271 | 34.87794 | 120 ft | 3 kts | 50° |
| 2026-05-05 16:53 | 32.00265 | 34.87786 | 120 ft | 0 kts | 31° |
| 2026-05-05 16:55 | 32.00266 | 34.87787 | 136 ft | 1 kts | 31° |
| 2026-05-05 16:56 | 32.00284 | 34.87800 | 117 ft | 6 kts | 31° |
| 2026-05-05 16:56 | 32.00341 | 34.87840 | 119 ft | 11 kts | 31° |
| 2026-05-05 16:56 | 32.00413 | 34.87893 | 117 ft | 13 kts | 31° |
| 2026-05-05 16:56 | 32.00490 | 34.87947 | 119 ft | 12 kts | 30° |
| 2026-05-05 16:57 | 32.00568 | 34.87930 | 119 ft | 12 kts | 341° |
| 2026-05-05 16:57 | 32.00650 | 34.87961 | 117 ft | 14 kts | 32° |
| 2026-05-05 16:57 | 32.00734 | 34.88023 | 120 ft | 15 kts | 31° |
| 2026-05-05 16:57 | 32.00825 | 34.88088 | 118 ft | 16 kts | 31° |
| 2026-05-05 16:58 | 32.00924 | 34.88160 | 119 ft | 17 kts | 33° |
| 2026-05-05 16:58 | 32.01032 | 34.88238 | 119 ft | 19 kts | 32° |
| 2026-05-05 16:58 | 32.01148 | 34.88323 | 118 ft | 20 kts | 31° |
| 2026-05-05 16:58 | 32.01268 | 34.88415 | 121 ft | 21 kts | 38° |
| 2026-05-05 16:59 | 32.01378 | 34.88545 | 117 ft | 23 kts | 52° |
| 2026-05-05 16:59 | 32.01461 | 34.88713 | 116 ft | 25 kts | 66° |
| 2026-05-05 16:59 | 32.01506 | 34.88905 | 117 ft | 22 kts | 79° |
| 2026-05-05 16:59 | 32.01536 | 34.89084 | 118 ft | 21 kts | 80° |
| 2026-05-05 17:00 | 32.01609 | 34.89158 | 115 ft | 16 kts | 350° |
| 2026-05-05 17:00 | 32.01725 | 34.89129 | 117 ft | 17 kts | 332° |
| 2026-05-05 17:00 | 32.01737 | 34.89040 | 118 ft | 11 kts | 260° |
| 2026-05-05 17:00 | 32.01701 | 34.88806 | 119 ft | 60 kts | 259° |
| 2026-05-05 17:01 | 32.01592 | 34.88093 | 119 ft | 114 kts | 260° |
| 2026-05-05 17:01 | 32.01424 | 34.86996 | 126 ft | 156 kts | 259° |
| 2026-05-05 17:01 | 32.01221 | 34.85692 | 565 ft | 162 kts | 259° |
| 2026-05-05 17:01 | 32.01015 | 34.84393 | 1229 ft | 160 kts | 252° |
| 2026-05-05 17:02 | 32.00367 | 34.83344 | 1855 ft | 163 kts | 218° |
| 2026-05-05 17:02 | 31.99282 | 34.82924 | 2425 ft | 171 kts | 184° |
| 2026-05-05 17:02 | 31.98138 | 34.83370 | 2940 ft | 182 kts | 146° |
| 2026-05-05 17:02 | 31.97413 | 34.84621 | 3400 ft | 196 kts | 112° |
| 2026-05-05 17:03 | 31.96980 | 34.86234 | 3650 ft | 213 kts | 109° |
| 2026-05-05 17:03 | 31.96561 | 34.87926 | 4171 ft | 217 kts | 109° |
| 2026-05-05 17:03 | 31.96133 | 34.89674 | 4631 ft | 226 kts | 109° |
| 2026-05-05 17:03 | 31.95684 | 34.91504 | 5001 ft | 243 kts | 109° |
| 2026-05-05 17:04 | 31.95196 | 34.93475 | 5534 ft | 254 kts | 109° |
| 2026-05-05 17:04 | 31.94867 | 34.94802 | 6051 ft | 256 kts | 109° |
| 2026-05-05 17:04 | 31.94235 | 34.96760 | 6781 ft | 257 kts | 117° |
| 2026-05-05 17:04 | 31.93493 | 34.98701 | 7370 ft | 268 kts | 117° |
| 2026-05-05 17:05 | 31.92681 | 35.00791 | 7647 ft | 292 kts | 117° |
| 2026-05-05 17:05 | 31.91802 | 35.03052 | 7904 ft | 316 kts | 116° |
| 2026-05-05 17:05 | 31.90855 | 35.05497 | 8125 ft | 340 kts | 116° |
| 2026-05-05 17:05 | 31.89854 | 35.08083 | 8595 ft | 352 kts | 116° |
| 2026-05-05 17:06 | 31.88831 | 35.10726 | 9272 ft | 358 kts | 116° |
| 2026-05-05 17:06 | 31.87792 | 35.13409 | 9835 ft | 364 kts | 115° |
| 2026-05-05 17:06 | 31.86741 | 35.16120 | 9976 ft | 364 kts | 116° |
| 2026-05-05 17:06 | 31.85690 | 35.18833 | 10008 ft | 364 kts | 116° |
| 2026-05-05 17:07 | 31.84643 | 35.21535 | 10008 ft | 364 kts | 116° |
| 2026-05-05 17:07 | 31.83592 | 35.24244 | 10010 ft | 364 kts | 115° |
| 2026-05-05 17:07 | 31.82542 | 35.26945 | 10010 ft | 362 kts | 116° |
| 2026-05-05 17:07 | 31.81494 | 35.29630 | 10014 ft | 360 kts | 116° |
| 2026-05-05 17:08 | 31.80449 | 35.32305 | 10011 ft | 360 kts | 116° |
| 2026-05-05 17:08 | 31.79406 | 35.34974 | 10018 ft | 360 kts | 116° |
| 2026-05-05 17:08 | 31.78365 | 35.37642 | 10017 ft | 359 kts | 116° |
| 2026-05-05 17:08 | 31.77200 | 35.40234 | 10135 ft | 361 kts | 126° |
| 2026-05-05 17:09 | 31.75600 | 35.42495 | 10831 ft | 359 kts | 139° |
| 2026-05-05 17:09 | 31.73684 | 35.44305 | 11470 ft | 359 kts | 151° |
| 2026-05-05 17:09 | 31.71463 | 35.45621 | 12088 ft | 357 kts | 163° |
| 2026-05-05 17:09 | 31.69077 | 35.46400 | 12728 ft | 355 kts | 176° |
| 2026-05-05 17:10 | 31.66627 | 35.46563 | 13372 ft | 351 kts | 189° |
| 2026-05-05 17:10 | 31.64230 | 35.46124 | 14001 ft | 349 kts | 197° |
| 2026-05-05 17:10 | 31.61843 | 35.45545 | 14597 ft | 351 kts | 197° |
| 2026-05-05 17:10 | 31.59441 | 35.44986 | 15198 ft | 353 kts | 197° |
| 2026-05-05 17:11 | 31.57025 | 35.44446 | 15812 ft | 354 kts | 197° |
| 2026-05-05 17:11 | 31.54603 | 35.43913 | 16418 ft | 355 kts | 198° |
| 2026-05-05 17:11 | 31.52166 | 35.43379 | 16876 ft | 356 kts | 198° |
| 2026-05-05 17:11 | 31.49735 | 35.42845 | 17006 ft | 356 kts | 198° |
| 2026-05-05 17:12 | 31.47273 | 35.42300 | 17034 ft | 363 kts | 198° |
| 2026-05-05 17:12 | 31.44787 | 35.41747 | 17034 ft | 364 kts | 198° |
| 2026-05-05 17:12 | 31.42295 | 35.41193 | 17034 ft | 364 kts | 198° |
| 2026-05-05 17:12 | 31.39807 | 35.40641 | 17039 ft | 364 kts | 198° |
| 2026-05-05 17:13 | 31.37316 | 35.40088 | 17039 ft | 364 kts | 198° |
| 2026-05-05 17:13 | 31.34824 | 35.39536 | 17040 ft | 364 kts | 198° |
| 2026-05-05 17:13 | 31.32310 | 35.39073 | 17003 ft | 369 kts | 193° |
| 2026-05-05 17:13 | 31.29751 | 35.38805 | 17032 ft | 369 kts | 193° |
| 2026-05-05 17:14 | 31.27191 | 35.38535 | 17050 ft | 370 kts | 193° |
| 2026-05-05 17:14 | 31.24629 | 35.38264 | 17053 ft | 370 kts | 193° |
| 2026-05-05 17:14 | 31.22070 | 35.37995 | 17060 ft | 370 kts | 193° |
| 2026-05-05 17:14 | 31.19507 | 35.37729 | 17060 ft | 370 kts | 193° |
| 2026-05-05 17:15 | 31.16945 | 35.37462 | 17061 ft | 370 kts | 193° |
| 2026-05-05 17:15 | 31.14414 | 35.37200 | 17064 ft | 370 kts | 193° |
| 2026-05-05 17:15 | 31.11816 | 35.36936 | 17065 ft | 370 kts | 193° |
| 2026-05-05 17:15 | 31.09292 | 35.36677 | 17040 ft | 370 kts | 192° |
| 2026-05-05 17:16 | 31.06730 | 35.36414 | 17044 ft | 369 kts | 192° |
| 2026-05-05 17:16 | 31.04169 | 35.36151 | 17054 ft | 369 kts | 193° |
| 2026-05-05 17:16 | 31.01610 | 35.35887 | 17057 ft | 369 kts | 193° |
| 2026-05-05 17:16 | 30.99054 | 35.35624 | 17060 ft | 369 kts | 192° |
| 2026-05-05 17:17 | 30.96494 | 35.35360 | 17065 ft | 368 kts | 193° |
| 2026-05-05 17:17 | 30.94009 | 35.34836 | 17061 ft | 360 kts | 203° |
| 2026-05-05 17:17 | 30.91691 | 35.33817 | 17064 ft | 355 kts | 210° |
| 2026-05-05 17:17 | 30.89421 | 35.32686 | 17068 ft | 355 kts | 210° |
| 2026-05-05 17:18 | 30.87146 | 35.31556 | 17027 ft | 355 kts | 209° |
| 2026-05-05 17:18 | 30.84868 | 35.30431 | 17031 ft | 356 kts | 209° |
| 2026-05-05 17:18 | 30.82591 | 35.29310 | 17032 ft | 356 kts | 209° |
| 2026-05-05 17:18 | 30.80309 | 35.28188 | 17035 ft | 356 kts | 209° |
| 2026-05-05 17:19 | 30.78026 | 35.27067 | 17038 ft | 356 kts | 209° |
| 2026-05-05 17:19 | 30.75749 | 35.25950 | 16907 ft | 350 kts | 209° |
| 2026-05-05 17:19 | 30.73544 | 35.24871 | 16652 ft | 339 kts | 209° |
| 2026-05-05 17:19 | 30.71398 | 35.23823 | 16419 ft | 330 kts | 210° |
| 2026-05-05 17:20 | 30.69331 | 35.22814 | 16169 ft | 321 kts | 210° |
| 2026-05-05 17:20 | 30.67286 | 35.21812 | 15921 ft | 317 kts | 210° |
| 2026-05-05 17:20 | 30.65258 | 35.20813 | 15680 ft | 316 kts | 210° |
| 2026-05-05 17:20 | 30.63241 | 35.19817 | 15437 ft | 315 kts | 210° |
| 2026-05-05 17:21 | 30.61227 | 35.18823 | 15183 ft | 314 kts | 210° |
| 2026-05-05 17:21 | 30.59214 | 35.17832 | 14955 ft | 313 kts | 210° |
| 2026-05-05 17:21 | 30.57209 | 35.16849 | 14719 ft | 313 kts | 210° |
| 2026-05-05 17:22 | 30.52927 | 35.15621 | 14245 ft | 320 kts | 197° |
| 2026-05-05 17:22 | 30.50737 | 35.15202 | 13986 ft | 317 kts | 197° |
| 2026-05-05 17:22 | 30.48569 | 35.14788 | 13441 ft | 316 kts | 191° |
| 2026-05-05 17:22 | 30.46407 | 35.14373 | 13104 ft | 313 kts | 189° |
| 2026-05-05 17:23 | 30.44223 | 35.13951 | 12694 ft | 312 kts | 189° |
| 2026-05-05 17:23 | 30.42121 | 35.13544 | 12276 ft | 313 kts | 190° |
| 2026-05-05 17:23 | 30.39965 | 35.13126 | 11784 ft | 315 kts | 190° |
| 2026-05-05 17:23 | 30.37796 | 35.12707 | 11343 ft | 316 kts | 190° |
| 2026-05-05 17:24 | 30.35660 | 35.12297 | 10926 ft | 316 kts | 190° |
| 2026-05-05 17:24 | 30.33490 | 35.11877 | 10501 ft | 316 kts | 190° |
| 2026-05-05 17:24 | 30.31328 | 35.11461 | 10212 ft | 311 kts | 190° |
| 2026-05-05 17:24 | 30.29253 | 35.11068 | 10082 ft | 302 kts | 190° |
| 2026-05-05 17:25 | 30.27204 | 35.10685 | 9859 ft | 295 kts | 190° |
| 2026-05-05 17:25 | 30.25839 | 35.10432 | 9770 ft | 293 kts | 190° |
| 2026-05-05 17:25 | 30.23161 | 35.09934 | 9266 ft | 295 kts | 190° |
| 2026-05-05 17:25 | 30.21134 | 35.09546 | 8937 ft | 293 kts | 191° |
| 2026-05-05 17:26 | 30.19114 | 35.09134 | 8556 ft | 293 kts | 191° |
| 2026-05-05 17:26 | 30.17120 | 35.08716 | 8276 ft | 290 kts | 191° |
| 2026-05-05 17:26 | 30.15135 | 35.08299 | 7923 ft | 290 kts | 191° |
| 2026-05-05 17:26 | 30.13152 | 35.07881 | 7590 ft | 289 kts | 191° |
| 2026-05-05 17:27 | 30.11177 | 35.07465 | 7254 ft | 287 kts | 191° |
| 2026-05-05 17:27 | 30.09213 | 35.07054 | 6934 ft | 286 kts | 191° |
| 2026-05-05 17:27 | 30.07285 | 35.06653 | 6606 ft | 285 kts | 191° |
| 2026-05-05 17:27 | 30.05338 | 35.06255 | 6277 ft | 284 kts | 191° |
| 2026-05-05 17:28 | 30.03398 | 35.05874 | 5990 ft | 281 kts | 190° |
| 2026-05-05 17:28 | 30.01485 | 35.05507 | 5926 ft | 277 kts | 190° |
| 2026-05-05 17:28 | 29.99583 | 35.05143 | 5930 ft | 274 kts | 190° |
| 2026-05-05 17:28 | 29.97755 | 35.04793 | 5929 ft | 259 kts | 190° |
| 2026-05-05 17:29 | 29.96027 | 35.04462 | 5931 ft | 244 kts | 190° |
| 2026-05-05 17:29 | 29.94371 | 35.04145 | 5933 ft | 239 kts | 191° |
| 2026-05-05 17:29 | 29.92732 | 35.03828 | 5934 ft | 239 kts | 191° |
| 2026-05-05 17:29 | 29.91094 | 35.03512 | 5934 ft | 239 kts | 191° |
| 2026-05-05 17:30 | 29.89454 | 35.03193 | 5935 ft | 239 kts | 191° |
| 2026-05-05 17:30 | 29.87816 | 35.02874 | 5934 ft | 239 kts | 191° |
| 2026-05-05 17:30 | 29.86182 | 35.02554 | 5937 ft | 238 kts | 191° |
| 2026-05-05 17:30 | 29.84556 | 35.02237 | 5937 ft | 232 kts | 191° |
| 2026-05-05 17:31 | 29.83017 | 35.01938 | 5933 ft | 221 kts | 191° |
| 2026-05-05 17:31 | 29.81568 | 35.01420 | 5878 ft | 219 kts | 207° |
| 2026-05-05 17:31 | 29.80200 | 35.00637 | 5572 ft | 219 kts | 208° |
| 2026-05-05 17:31 | 29.78864 | 34.99868 | 5346 ft | 208 kts | 208° |
| 2026-05-05 17:32 | 29.77599 | 34.99140 | 5085 ft | 199 kts | 208° |
| 2026-05-05 17:32 | 29.76420 | 34.98463 | 5002 ft | 181 kts | 208° |
| 2026-05-05 17:32 | 29.75307 | 34.97825 | 4935 ft | 177 kts | 206° |
| 2026-05-05 17:32 | 29.74130 | 34.97370 | 4738 ft | 180 kts | 198° |
| 2026-05-05 17:33 | 29.72945 | 34.96973 | 4630 ft | 177 kts | 198° |
| 2026-05-05 17:33 | 29.71766 | 34.96581 | 4538 ft | 176 kts | 198° |
| 2026-05-05 17:33 | 29.70591 | 34.96187 | 4321 ft | 174 kts | 198° |
| 2026-05-05 17:33 | 29.69455 | 34.95805 | 4087 ft | 166 kts | 198° |
| 2026-05-05 17:34 | 29.68364 | 34.95437 | 3886 ft | 162 kts | 198° |
| 2026-05-05 17:34 | 29.67304 | 34.95079 | 3691 ft | 160 kts | 198° |
| 2026-05-05 17:34 | 29.66253 | 34.94724 | 3512 ft | 156 kts | 198° |
| 2026-05-05 17:34 | 29.65212 | 34.94394 | 3307 ft | 155 kts | 190° |
| 2026-05-05 17:35 | 29.64185 | 34.94668 | 3120 ft | 155 kts | 143° |
| 2026-05-05 17:35 | 29.63618 | 34.95675 | 2819 ft | 151 kts | 101° |
| 2026-05-05 17:35 | 29.63396 | 34.96862 | 2514 ft | 152 kts | 101° |
| 2026-05-05 17:35 | 29.63366 | 34.98047 | 2228 ft | 148 kts | 66° |
| 2026-05-05 17:36 | 29.64008 | 34.98919 | 2010 ft | 145 kts | 26° |
| 2026-05-05 17:36 | 29.64954 | 34.99275 | 1783 ft | 143 kts | 11° |
| 2026-05-05 17:36 | 29.65924 | 34.99525 | 1482 ft | 142 kts | 9° |
| 2026-05-05 17:36 | 29.66888 | 34.99766 | 1268 ft | 142 kts | 10° |
| 2026-05-05 17:37 | 29.67846 | 35.00022 | 1045 ft | 141 kts | 11° |
| 2026-05-05 17:37 | 29.68477 | 35.00214 | 901 ft | 142 kts | 13° |
| 2026-05-05 17:37 | 29.69750 | 35.00594 | 601 ft | 141 kts | 12° |
| 2026-05-05 17:37 | 29.70699 | 35.00856 | 407 ft | 140 kts | 12° |
| 2026-05-05 17:38 | 29.71648 | 35.01115 | 300 ft | 137 kts | 14° |
| 2026-05-05 17:38 | 29.72360 | 35.01311 | 299 ft | 94 kts | 13° |
| 2026-05-05 17:38 | 29.72804 | 35.01435 | 299 ft | 51 kts | 13° |
| 2026-05-05 17:38 | 29.73046 | 35.01501 | 299 ft | 22 kts | 13° |
| 2026-05-05 17:39 | 29.73203 | 35.01509 | 300 ft | 23 kts | 354° |
| 2026-05-05 17:39 | 29.73348 | 35.01469 | 299 ft | 14 kts | 339° |
| 2026-05-05 17:39 | 29.73386 | 35.01393 | 297 ft | 12 kts | 248° |
| 2026-05-05 17:39 | 29.73306 | 35.01352 | 299 ft | 14 kts | 193° |
| 2026-05-05 17:40 | 29.73207 | 35.01325 | 299 ft | 16 kts | 193° |
| 2026-05-05 17:40 | 29.73123 | 35.01301 | 298 ft | 18 kts | 194° |
| 2026-05-05 17:40 | 29.72995 | 35.01265 | 298 ft | 20 kts | 194° |
| 2026-05-05 17:40 | 29.72877 | 35.01233 | 298 ft | 13 kts | 194° |
| 2026-05-05 17:41 | 29.72840 | 35.01150 | 298 ft | 14 kts | 279° |
| 2026-05-05 17:41 | 29.72864 | 35.01033 | 298 ft | 15 kts | 270° |
| 2026-05-05 17:41 | 29.72786 | 35.00967 | 298 ft | 16 kts | 193° |
| 2026-05-05 17:41 | 29.72678 | 35.00939 | 300 ft | 15 kts | 193° |
| 2026-05-05 17:42 | 29.72573 | 35.00911 | 298 ft | 17 kts | 193° |
| 2026-05-05 17:42 | 29.72498 | 35.00892 | 298 ft | 9 kts | 194° |
| 2026-05-05 17:42 | 29.72480 | 35.00830 | 298 ft | 10 kts | 289° |
| 2026-05-05 17:42 | 29.72489 | 35.00793 | 299 ft | 0 kts | 284° |